Time;durP1;ratioP1;P1;durP2;ratioP2;P2;SDS_P1;SDS_P2;PMS_P1;PMS_P2;Temp;Humidity;BMP_temperature;BMP_pressure;BME280_temperature;BME280_humidity;BME280_pressure;Samples;Min_cycle;Max_cycle;Signal;HPM_P1;HPM_P2
2021/12/08 00:02:15;;;;;;;3.33;1.60;;;;;;;-0.55;100.00;93470.50;5032448;28;20222;-63
2021/12/08 00:04:42;;;;;;;1.83;1.73;;;;;;;-0.47;100.00;93478.31;5032240;28;20178;-60
2021/12/08 00:07:08;;;;;;;3.07;1.90;;;;;;;-0.60;100.00;93484.13;5032078;28;20205;-64
2021/12/08 00:14:51;;;;;;;2.03;1.83;;;;;;;-0.55;100.00;93484.66;5032364;28;20191;-62
2021/12/08 00:17:17;;;;;;;3.27;1.80;;;;;;;-0.56;100.00;93486.34;5032497;28;20252;-61
2021/12/08 00:19:42;;;;;;;2.07;1.60;;;;;;;-0.60;100.00;93489.13;5031951;28;20200;-62
2021/12/08 00:22:08;;;;;;;1.93;1.60;;;;;;;-0.58;100.00;93499.81;5032195;28;20236;-58
2021/12/08 00:24:33;;;;;;;4.63;1.80;;;;;;;-0.59;100.00;93495.72;5031828;28;20261;-60
2021/12/08 00:26:59;;;;;;;1.90;1.70;;;;;;;-0.58;100.00;93500.63;5032084;28;20209;-59
2021/12/08 00:29:24;;;;;;;1.80;1.70;;;;;;;-0.59;100.00;93505.69;5032007;28;20612;-59
2021/12/08 00:31:50;;;;;;;2.37;1.73;;;;;;;-0.64;100.00;93508.47;5032025;28;20208;-60
2021/12/08 00:34:16;;;;;;;3.03;1.90;;;;;;;-0.57;100.00;93509.72;5031666;28;20256;-57
2021/12/08 00:36:45;;;;;;;3.57;2.10;;;;;;;-0.54;100.00;93508.72;5031470;28;20242;-61
2021/12/08 00:39:11;;;;;;;1.80;1.60;;;;;;;-0.58;100.00;93510.59;5031518;28;20284;-58
2021/12/08 00:41:37;;;;;;;3.33;2.37;;;;;;;-0.54;100.00;93507.00;5031610;28;20228;-60
2021/12/08 00:44:03;;;;;;;2.73;2.30;;;;;;;-0.59;100.00;93508.19;5031564;28;20180;-57
2021/12/08 00:46:29;;;;;;;2.50;2.13;;;;;;;-0.53;100.00;93520.31;5031388;28;20216;-61
2021/12/08 00:48:55;;;;;;;3.17;2.13;;;;;;;-0.52;100.00;93512.72;5031426;28;20250;-59
2021/12/08 00:51:20;;;;;;;1.87;1.70;;;;;;;-0.55;100.00;93510.41;5029982;28;20223;-60
2021/12/08 00:53:46;;;;;;;3.00;1.80;;;;;;;-0.46;100.00;93514.84;5029877;28;20239;-58
2021/12/08 00:56:12;;;;;;;3.23;2.13;;;;;;;-0.47;100.00;93520.75;5030988;28;20213;-59
2021/12/08 00:58:38;;;;;;;2.27;1.90;;;;;;;-0.47;100.00;93518.25;5031470;28;20172;-58
2021/12/08 01:01:05;;;;;;;3.37;2.33;;;;;;;-0.53;100.00;93518.63;5031166;28;20274;-58
2021/12/08 01:03:30;;;;;;;2.20;2.00;;;;;;;-0.52;100.00;93515.22;5031270;28;20264;-60
2021/12/08 01:05:57;;;;;;;3.27;1.90;;;;;;;-0.54;100.00;93519.50;5031060;28;20264;-58
2021/12/08 01:08:24;;;;;;;2.13;1.83;;;;;;;-0.51;100.00;93518.50;5029667;28;20610;-58
2021/12/08 01:10:52;;;;;;;3.33;2.27;;;;;;;-0.50;100.00;93520.91;5030703;28;20572;-59
2021/12/08 01:13:19;;;;;;;2.90;2.37;;;;;;;-0.51;100.00;93526.81;5029610;28;20627;-60
2021/12/08 01:15:48;;;;;;;2.73;2.50;;;;;;;-0.49;100.00;93525.03;5031100;28;20608;-57
2021/12/08 01:18:15;;;;;;;3.20;2.30;;;;;;;-0.48;100.00;93528.28;5030963;28;20191;-61
2021/12/08 01:20:41;;;;;;;3.70;2.20;;;;;;;-0.48;100.00;93530.78;5030857;28;20208;-58
2021/12/08 01:23:06;;;;;;;2.43;2.17;;;;;;;-0.51;100.00;93531.00;5031370;28;20209;-59
2021/12/08 01:25:32;;;;;;;2.57;2.37;;;;;;;-0.51;100.00;93521.81;5031107;28;20176;-62
2021/12/08 01:27:58;;;;;;;3.90;2.70;;;;;;;-0.54;100.00;93531.97;5031377;28;20219;-62
2021/12/08 01:30:24;;;;;;;3.40;2.80;;;;;;;-0.52;100.00;93531.88;5030932;28;20238;-59
2021/12/08 01:32:49;;;;;;;3.20;2.80;;;;;;;-0.54;100.00;93519.50;5031234;28;20216;-61
2021/12/08 01:35:15;;;;;;;4.27;3.27;;;;;;;-0.61;100.00;93517.47;5029381;28;20568;-61
2021/12/08 01:37:41;;;;;;;3.63;2.97;;;;;;;-0.52;100.00;93519.41;5031251;28;20203;-58
2021/12/08 01:40:10;;;;;;;4.00;3.23;;;;;;;-0.51;100.00;93539.28;5031012;28;20183;-58
2021/12/08 01:42:42;;;;;;;5.83;3.10;;;;;;;-0.49;100.00;93537.50;5031018;28;20223;-59
2021/12/08 01:47:53;;;;;;;5.33;3.17;;;;;;;-0.48;100.00;93536.59;5031501;28;20306;-61
2021/12/08 01:50:19;;;;;;;4.30;3.20;;;;;;;-0.50;100.00;93538.38;5029329;28;20186;-61
2021/12/08 01:52:45;;;;;;;5.30;3.67;;;;;;;-0.55;100.00;93542.06;5029589;28;20626;-60
2021/12/08 01:55:11;;;;;;;5.33;3.03;;;;;;;-0.48;100.00;93545.75;5030695;28;20190;-59
2021/12/08 01:57:37;;;;;;;4.70;3.23;;;;;;;-0.52;100.00;93542.66;5030597;28;20286;-61
2021/12/08 02:00:12;;;;;;;6.03;3.70;;;;;;;-0.51;100.00;93539.28;5030232;28;20241;-58
2021/12/08 02:02:39;;;;;;;4.90;3.23;;;;;;;-0.51;100.00;93556.75;5030756;28;20351;-60
2021/12/08 02:05:05;;;;;;;6.47;4.40;;;;;;;-0.48;100.00;93546.56;5030511;28;20180;-61
2021/12/08 02:07:30;;;;;;;6.37;3.97;;;;;;;-0.51;100.00;93553.44;5030172;28;20216;-60
2021/12/08 02:09:56;;;;;;;8.20;5.30;;;;;;;-0.50;100.00;93553.34;5030206;28;20181;-58
2021/12/08 02:12:22;;;;;;;8.27;5.00;;;;;;;-0.47;100.00;93554.88;5030682;28;20251;-59
2021/12/08 02:14:47;;;;;;;5.63;3.97;;;;;;;-0.51;100.00;93555.94;5030509;28;20213;-58
2021/12/08 02:17:13;;;;;;;7.03;4.77;;;;;;;-0.52;100.00;93557.63;5030411;28;20256;-60
2021/12/08 02:19:39;;;;;;;6.87;4.80;;;;;;;-0.54;100.00;93553.63;5030241;28;20184;-58
2021/12/08 02:22:05;;;;;;;7.63;4.80;;;;;;;-0.50;100.00;93555.84;5032354;28;20233;-59
2021/12/08 02:24:31;;;;;;;7.53;5.40;;;;;;;-0.51;100.00;93564.25;5033745;28;20187;-57
2021/12/08 02:26:58;;;;;;;8.50;5.40;;;;;;;-0.55;100.00;93557.03;5033539;28;20569;-62
2021/12/08 02:29:52;;;;;;;9.23;4.60;;;;;;;-0.47;100.00;93563.16;5033733;28;20186;-59
2021/12/08 02:48:28;;;;;;;10.20;6.37;;;;;;;-0.42;100.00;93586.13;5034310;28;20510;-60
2021/12/08 02:50:55;;;;;;;12.00;6.57;;;;;;;-0.45;100.00;93585.53;5033225;28;20175;-60
2021/12/08 02:53:21;;;;;;;12.47;6.83;;;;;;;-0.40;100.00;93579.34;5033475;28;20174;-57
2021/12/08 02:55:47;;;;;;;11.37;6.90;;;;;;;-0.45;100.00;93588.81;5033459;28;20185;-59
2021/12/08 02:58:13;;;;;;;10.83;7.13;;;;;;;-0.46;100.00;93588.91;5031872;28;20630;-58
2021/12/08 03:01:00;;;;;;;13.27;7.90;;;;;;;-0.45;100.00;93596.31;5033193;28;20291;-57
2021/12/08 03:03:26;;;;;;;15.47;8.40;;;;;;;-0.43;100.00;93589.53;5033427;28;20180;-58
2021/12/08 03:05:51;;;;;;;13.70;8.00;;;;;;;-0.43;100.00;93593.72;5032848;28;20537;-58
2021/12/08 03:08:17;;;;;;;15.13;7.60;;;;;;;-0.42;100.00;93585.31;5033143;28;20618;-58
2021/12/08 03:10:45;;;;;;;14.73;9.10;;;;;;;-0.42;100.00;93601.09;5031742;28;20185;-62
2021/12/08 03:13:11;;;;;;;12.50;8.33;;;;;;;-0.42;100.00;93596.13;5039890;22;20248;-62
2021/12/08 03:15:37;;;;;;;15.10;8.33;;;;;;;-0.46;100.00;93604.69;5032882;28;20226;-58
2021/12/08 03:18:04;;;;;;;14.80;8.60;;;;;;;-0.48;100.00;93601.47;5033311;28;20237;-62
2021/12/08 03:20:45;;;;;;;15.97;9.20;;;;;;;-0.43;100.00;93599.53;5032820;28;20200;-57
2021/12/08 03:23:21;;;;;;;17.93;9.40;;;;;;;-0.43;100.00;93588.72;5033133;28;20727;-60
2021/12/08 03:25:55;;;;;;;15.17;8.83;;;;;;;-0.44;100.00;93602.09;5033009;28;20614;-61
2021/12/08 03:28:27;;;;;;;14.83;9.80;;;;;;;-0.46;100.00;93598.88;5032665;28;20179;-61
2021/12/08 03:31:05;;;;;;;16.03;9.50;;;;;;;-0.37;100.00;93596.66;5031568;28;20183;-62
2021/12/08 03:33:30;;;;;;;18.10;9.43;;;;;;;-0.44;100.00;93600.41;5031109;28;20257;-61
2021/12/08 03:35:57;;;;;;;15.77;8.13;;;;;;;-0.38;100.00;93611.69;5032481;28;20208;-61
2021/12/08 03:38:23;;;;;;;16.10;9.03;;;;;;;-0.36;100.00;93613.22;5032663;28;20221;-61
2021/12/08 03:40:49;;;;;;;19.50;9.63;;;;;;;-0.34;100.00;93618.13;5032245;28;20209;-63
2021/12/08 03:43:15;;;;;;;15.80;8.93;;;;;;;-0.31;100.00;93623.75;5030979;28;20193;-58
2021/12/08 03:45:47;;;;;;;15.37;8.93;;;;;;;-0.34;100.00;93620.59;5032693;28;20187;-62
2021/12/08 03:48:23;;;;;;;16.97;9.20;;;;;;;-0.35;100.00;93622.31;5032346;28;20196;-61
2021/12/08 03:50:49;;;;;;;17.57;9.60;;;;;;;-0.41;100.00;93625.19;5032314;28;20175;-59
2021/12/08 03:53:16;;;;;;;15.90;9.67;;;;;;;-0.36;100.00;93624.88;5030787;28;20244;-61
2021/12/08 03:55:44;;;;;;;13.70;8.20;;;;;;;-0.26;100.00;93628.44;5032542;28;20191;-60
2021/12/08 03:58:10;;;;;;;16.93;8.93;;;;;;;-0.29;100.00;93639.44;5032750;28;20278;-59
2021/12/08 04:00:36;;;;;;;16.00;9.53;;;;;;;-0.31;100.00;93627.94;5032041;28;20222;-60
2021/12/08 04:03:04;;;;;;;17.87;9.50;;;;;;;-0.31;100.00;93643.72;5032543;28;20205;-60
2021/12/08 04:05:43;;;;;;;14.30;8.47;;;;;;;-0.32;100.00;93644.59;5032287;28;20178;-61
2021/12/08 04:08:16;;;;;;;17.60;9.67;;;;;;;-0.34;100.00;93650.56;5032435;28;20220;-62
2021/12/08 04:10:46;;;;;;;16.73;9.20;;;;;;;-0.30;100.00;93652.78;5032310;28;20166;-58
2021/12/08 04:13:12;;;;;;;18.20;8.63;;;;;;;-0.35;100.00;93647.28;5032246;28;20212;-58
2021/12/08 04:15:38;;;;;;;18.47;9.80;;;;;;;-0.36;100.00;93653.16;5031808;28;20181;-60
2021/12/08 04:18:03;;;;;;;18.57;9.80;;;;;;;-0.35;100.00;93652.28;5032414;28;20298;-60
2021/12/08 04:20:40;;;;;;;17.93;9.73;;;;;;;-0.36;100.00;93650.66;5031899;28;20207;-61
2021/12/08 04:23:07;;;;;;;14.97;9.20;;;;;;;-0.34;100.00;93653.88;5031522;28;20212;-62
2021/12/08 04:25:37;;;;;;;21.33;10.17;;;;;;;-0.24;100.00;93654.94;5031692;28;20760;-62
2021/12/08 04:28:10;;;;;;;18.77;9.53;;;;;;;-0.25;100.00;93662.50;5029989;28;20205;-62
2021/12/08 04:31:08;;;;;;;15.13;8.50;;;;;;;-0.33;100.00;93665.47;5031857;28;20169;-62
2021/12/08 04:33:36;;;;;;;19.17;9.87;;;;;;;-0.30;100.00;93667.78;5027361;28;20218;-60
2021/12/08 04:38:54;;;;;;;14.53;7.43;;;;;;;-0.32;100.00;93669.56;5031632;28;20592;-62
2021/12/08 04:41:32;;;;;;;18.40;9.90;;;;;;;-0.29;100.00;93674.38;5031302;28;20231;-57
2021/12/08 04:44:12;;;;;;;19.00;8.67;;;;;;;-0.31;100.00;93676.16;5030803;28;20631;-58
2021/12/08 04:52:20;;;;;;;17.70;9.53;;;;;;;-0.32;100.00;93681.22;5015441;28;20315;-58
2021/12/08 05:03:39;;;;;;;17.20;8.70;;;;;;;-0.31;100.00;93692.84;5030937;28;20195;-62
2021/12/08 05:06:20;;;;;;;20.87;9.20;;;;;;;-0.31;100.00;93707.81;5030968;28;20631;-60
2021/12/08 05:08:50;;;;;;;19.47;9.00;;;;;;;-0.33;100.00;93705.41;5030951;28;20175;-62
2021/12/08 05:11:28;;;;;;;17.43;9.23;;;;;;;-0.32;100.00;93714.50;5030869;28;20208;-62
2021/12/08 05:14:08;;;;;;;18.40;9.93;;;;;;;-0.34;100.00;93711.28;5030798;28;20200;-62
2021/12/08 05:16:37;;;;;;;18.13;9.30;;;;;;;-0.29;100.00;93716.81;5031108;28;20697;-61
2021/12/08 05:19:06;;;;;;;19.00;9.37;;;;;;;-0.33;100.00;93722.88;5029248;28;20694;-61
2021/12/08 05:21:40;;;;;;;18.73;9.93;;;;;;;-0.33;100.00;93715.41;5030548;28;20638;-60
2021/12/08 05:24:16;;;;;;;15.03;9.30;;;;;;;-0.58;100.00;93680.25;5030794;28;20171;-62
2021/12/08 05:27:43;;;;;;;18.67;10.00;;;;;;;-0.31;100.00;93743.56;5037858;22;20233;-61
2021/12/08 05:30:15;;;;;;;17.50;10.97;;;;;;;-0.37;100.00;93726.44;4950621;29;20247;-63
2021/12/08 05:32:49;;;;;;;17.73;11.00;;;;;;;-0.36;100.00;93729.72;5031130;28;20227;-60
2021/12/08 05:35:16;;;;;;;19.57;10.17;;;;;;;-0.32;100.00;93728.66;5031629;28;20186;-62
2021/12/08 05:37:42;;;;;;;25.47;11.37;;;;;;;-0.39;100.00;93719.94;5030901;28;20219;-62
2021/12/08 05:40:15;;;;;;;17.93;10.37;;;;;;;-0.44;100.00;93727.69;5030825;28;20545;-65
2021/12/08 05:42:41;;;;;;;19.67;10.97;;;;;;;-0.40;100.00;93724.09;5030341;28;20315;-61
2021/12/08 05:45:13;;;;;;;17.30;9.90;;;;;;;-0.37;100.00;93736.44;5029199;28;20268;-59
2021/12/08 05:47:40;;;;;;;23.17;11.47;;;;;;;-0.38;100.00;93734.81;5030717;28;20200;-62
2021/12/08 05:50:09;;;;;;;20.03;10.60;;;;;;;-0.40;100.00;93748.25;5029084;28;20253;-58
2021/12/08 05:52:35;;;;;;;19.27;11.13;;;;;;;-0.42;100.00;93745.88;5030480;28;20276;-61
2021/12/08 05:55:08;;;;;;;20.93;10.93;;;;;;;-0.35;100.00;93749.63;5030646;28;20188;-60
2021/12/08 05:57:38;;;;;;;19.83;10.73;;;;;;;-0.37;100.00;93743.91;5034632;28;20256;-61
2021/12/08 06:00:29;;;;;;;22.90;11.63;;;;;;;-0.36;100.00;93754.69;5034271;28;20180;-60
2021/12/08 06:02:56;;;;;;;19.70;11.23;;;;;;;-0.39;100.00;93752.38;5034192;28;20596;-59
2021/12/08 06:05:23;;;;;;;20.60;10.53;;;;;;;-0.43;100.00;93758.44;5034319;28;20185;-59
2021/12/08 06:07:49;;;;;;;20.07;11.33;;;;;;;-0.38;100.00;93767.25;5034712;28;20212;-62
2021/12/08 06:10:20;;;;;;;19.80;11.00;;;;;;;-0.39;100.00;93768.16;5034109;28;20212;-60
2021/12/08 06:12:47;;;;;;;19.47;10.60;;;;;;;-0.34;100.00;93777.84;5034498;28;20292;-58
2021/12/08 06:15:13;;;;;;;23.00;11.40;;;;;;;-0.40;100.00;93776.53;5034074;28;20196;-62
2021/12/08 06:17:39;;;;;;;21.17;10.33;;;;;;;-0.42;100.00;93780.81;5032805;28;20239;-59
2021/12/08 06:20:07;;;;;;;22.30;9.70;;;;;;;-0.34;100.00;93786.16;5033853;28;20211;-59
2021/12/08 06:22:33;;;;;;;17.17;9.67;;;;;;;-0.42;100.00;93785.78;5034270;28;20233;-59
2021/12/08 06:24:59;;;;;;;22.73;11.20;;;;;;;-0.40;100.00;93788.19;5033718;28;20185;-59
2021/12/08 06:27:25;;;;;;;19.77;10.80;;;;;;;-0.33;100.00;93799.44;5033989;28;20219;-62
2021/12/08 06:29:50;;;;;;;23.57;10.87;;;;;;;-0.33;100.00;93794.47;5033926;28;20212;-59
2021/12/08 06:32:17;;;;;;;20.73;11.27;;;;;;;-0.28;100.00;93807.47;5034052;28;20205;-62
2021/12/08 06:34:47;;;;;;;23.20;11.47;;;;;;;-0.29;100.00;93800.88;5033676;28;20192;-63
2021/12/08 06:37:23;;;;;;;20.97;11.40;;;;;;;-0.26;100.00;93795.69;5034016;28;20729;-60
2021/12/08 06:39:54;;;;;;;22.03;11.43;;;;;;;-0.26;100.00;93795.69;5033727;28;20176;-61
2021/12/08 06:42:25;;;;;;;23.20;11.77;;;;;;;-0.23;100.00;93798.03;5033809;28;20308;-58
2021/12/08 06:44:54;;;;;;;23.87;12.53;;;;;;;-0.23;100.00;93800.53;5033666;28;20522;-60
2021/12/08 06:47:23;;;;;;;25.10;12.10;;;;;;;-0.13;100.00;93799.13;5031883;28;20832;-60
2021/12/08 06:49:51;;;;;;;21.37;11.73;;;;;;;-0.07;100.00;93794.59;5033783;28;20614;-64
2021/12/08 06:52:23;;;;;;;20.03;11.07;;;;;;;-0.18;100.00;93801.06;5033675;28;20209;-61
2021/12/08 06:54:59;;;;;;;18.00;10.23;;;;;;;-0.17;100.00;93801.00;5033578;28;20170;-58
2021/12/08 06:57:38;;;;;;;20.60;10.20;;;;;;;-0.10;100.00;93807.22;5033844;28;20213;-58
2021/12/08 07:00:23;;;;;;;16.90;8.67;;;;;;;-0.17;100.00;93806.00;5033450;28;20238;-59
2021/12/08 07:03:05;;;;;;;16.83;8.73;;;;;;;-0.24;100.00;93804.72;5033944;28;20303;-63
2021/12/08 07:08:42;;;;;;;15.03;8.47;;;;;;;-0.23;100.00;93806.34;5009556;28;20300;-60
2021/12/08 07:11:08;;;;;;;14.63;8.40;;;;;;;-0.18;100.00;93808.56;5033217;28;20219;-61
2021/12/08 07:13:36;;;;;;;14.40;8.47;;;;;;;-0.26;100.00;93813.19;5033196;28;20538;-62
2021/12/08 07:16:15;;;;;;;14.83;8.07;;;;;;;-0.34;100.00;93808.63;5031693;28;20330;-62
2021/12/08 07:18:54;;;;;;;17.50;8.83;;;;;;;-0.22;100.00;93809.63;5032659;28;20255;-62
2021/12/08 07:21:37;;;;;;;17.87;9.23;;;;;;;-0.30;100.00;93820.03;5033784;28;20371;-63
2021/12/08 07:24:07;;;;;;;15.93;8.80;;;;;;;-0.28;100.00;93829.94;5033598;28;20170;-61
2021/12/08 07:26:37;;;;;;;12.87;7.30;;;;;;;-0.33;100.00;93824.41;5033209;28;20236;-63
2021/12/08 07:29:05;;;;;;;13.07;8.13;;;;;;;-0.37;100.00;93821.28;5032909;28;20261;-62
2021/12/08 07:31:37;;;;;;;13.67;8.07;;;;;;;-0.30;100.00;93840.00;5033001;28;20255;-62
2021/12/08 07:34:06;;;;;;;14.50;9.00;;;;;;;-0.28;100.00;93840.72;5031763;28;20331;-63
2021/12/08 07:36:39;;;;;;;12.83;8.13;;;;;;;-0.26;100.00;93846.44;5031486;28;20212;-63
2021/12/08 07:39:10;;;;;;;17.20;9.33;;;;;;;-0.21;100.00;93844.50;5032814;28;20262;-63
2021/12/08 07:41:39;;;;;;;15.83;8.13;;;;;;;-0.24;100.00;93844.66;5032636;28;20377;-62
2021/12/08 07:44:08;;;;;;;15.43;8.30;;;;;;;-0.24;100.00;93849.66;5031360;28;20612;-62
2021/12/08 07:46:48;;;;;;;17.00;8.53;;;;;;;-0.19;100.00;93842.72;5031413;28;20218;-62
2021/12/08 07:49:36;;;;;;;15.07;8.13;;;;;;;-0.24;100.00;93844.66;5032644;28;20555;-62
2021/12/08 07:52:02;;;;;;;14.67;9.00;;;;;;;-0.18;100.00;93859.31;5032941;28;20351;-63
2021/12/08 07:54:31;;;;;;;14.10;8.77;;;;;;;-0.09;100.00;93856.28;5032617;28;20303;-63
2021/12/08 07:56:59;;;;;;;16.00;8.33;;;;;;;-0.16;100.00;93862.50;5030978;28;20703;-63
2021/12/08 07:59:26;;;;;;;15.33;8.27;;;;;;;-0.18;100.00;93858.50;5032421;28;20705;-62
2021/12/08 08:01:57;;;;;;;15.40;8.60;;;;;;;-0.19;100.00;93855.22;5032630;28;20282;-63
2021/12/08 08:04:27;;;;;;;17.37;9.03;;;;;;;-0.17;100.00;93858.44;5032590;28;20554;-63
2021/12/08 08:06:56;;;;;;;14.90;7.90;;;;;;;-0.15;100.00;93869.13;5032517;28;20220;-62
2021/12/08 08:09:27;;;;;;;15.07;7.73;;;;;;;-0.16;100.00;93856.72;5032807;28;20186;-63
2021/12/08 08:12:01;;;;;;;18.07;9.00;;;;;;;-0.15;100.00;93869.13;5033433;28;20263;-65
2021/12/08 08:14:31;;;;;;;16.40;8.90;;;;;;;-0.11;100.00;93884.75;5031869;28;20577;-63
2021/12/08 08:16:59;;;;;;;13.90;8.93;;;;;;;-0.11;100.00;93879.75;5032374;28;20752;-62
2021/12/08 08:19:29;;;;;;;15.97;8.47;;;;;;;-0.05;100.00;93880.22;5032044;28;20185;-61
2021/12/08 08:22:00;;;;;;;13.30;7.90;;;;;;;-0.13;100.00;93867.34;5032064;28;20276;-63
2021/12/08 08:24:25;;;;;;;16.47;7.40;;;;;;;-0.05;100.00;93872.72;5032090;28;20261;-63
2021/12/08 08:26:54;;;;;;;14.57;8.93;;;;;;;-0.06;100.00;93886.06;5039462;22;20643;-65
2021/12/08 08:29:20;;;;;;;15.13;8.03;;;;;;;-0.04;100.00;93871.81;5030434;28;20180;-62
2021/12/08 08:31:59;;;;;;;16.50;9.10;;;;;;;-0.08;100.00;93877.88;5031669;28;20227;-62
2021/12/08 08:34:33;;;;;;;11.67;7.47;;;;;;;0.04;100.00;93875.59;5031949;28;20167;-62
2021/12/08 08:36:59;;;;;;;16.23;9.07;;;;;;;0.06;100.00;93876.28;5031999;28;20300;-62
2021/12/08 08:39:29;;;;;;;16.60;8.80;;;;;;;0.18;100.00;93880.59;5031874;28;20637;-61
2021/12/08 08:42:01;;;;;;;19.37;9.70;;;;;;;0.21;100.00;93880.41;5031973;28;20214;-62
2021/12/08 08:44:45;;;;;;;14.90;8.63;;;;;;;0.10;100.00;93876.03;5030064;28;20635;-64
2021/12/08 08:47:19;;;;;;;14.50;8.50;;;;;;;0.06;100.00;93877.09;5031705;28;20318;-63
2021/12/08 08:49:47;;;;;;;14.93;9.57;;;;;;;0.07;100.00;93876.19;5030042;28;20184;-63
2021/12/08 08:52:45;;;;;;;16.30;9.30;;;;;;;0.19;100.00;93877.19;5031362;28;20279;-62
2021/12/08 08:55:28;;;;;;;19.77;10.53;;;;;;;0.19;100.00;93872.19;5014902;28;20200;-62
2021/12/08 08:57:55;;;;;;;21.87;10.30;;;;;;;0.26;100.00;93868.47;5029948;28;20211;-62
2021/12/08 09:00:36;;;;;;;15.60;9.63;;;;;;;0.21;100.00;93875.41;5031118;28;20596;-62
2021/12/08 09:03:06;;;;;;;15.87;9.53;;;;;;;0.25;100.00;93866.84;5031791;28;20215;-62
2021/12/08 09:05:43;;;;;;;19.27;10.27;;;;;;;0.26;100.00;93870.97;5031112;28;20191;-62
2021/12/08 09:08:10;;;;;;;24.17;11.27;;;;;;;0.20;100.00;93863.81;5029659;28;20648;-63
2021/12/08 09:10:44;;;;;;;20.33;10.63;;;;;;;0.24;100.00;93866.06;5030943;28;20276;-61
2021/12/08 09:13:29;;;;;;;15.87;9.67;;;;;;;0.21;100.00;93863.72;5031878;28;20219;-60
2021/12/08 09:15:59;;;;;;;18.63;9.80;;;;;;;0.30;100.00;93860.72;5031210;28;20173;-62
2021/12/08 09:18:47;;;;;;;15.57;9.10;;;;;;;0.47;100.00;93852.19;5031269;28;20216;-61
2021/12/08 09:21:25;;;;;;;19.30;9.77;;;;;;;0.57;100.00;93850.75;5030944;28;20601;-58
2021/12/08 09:24:14;;;;;;;17.93;9.33;;;;;;;0.56;100.00;93849.16;5030956;28;20177;-61
2021/12/08 09:26:47;;;;;;;17.87;9.90;;;;;;;0.65;100.00;93836.09;5029483;28;20222;-61
2021/12/08 09:29:19;;;;;;;16.27;9.43;;;;;;;0.74;100.00;93828.06;5030872;28;20197;-57
2021/12/08 09:32:07;;;;;;;17.67;10.73;;;;;;;0.90;100.00;93830.44;5030525;28;20232;-59
2021/12/08 09:34:38;;;;;;;15.70;8.87;;;;;;;0.99;100.00;93834.91;5030903;28;20161;-61
2021/12/08 09:37:10;;;;;;;17.70;9.57;;;;;;;0.80;100.00;93826.00;5031025;28;20276;-61
2021/12/08 09:39:47;;;;;;;16.33;8.97;;;;;;;1.00;100.00;93832.28;5031293;28;20166;-59
2021/12/08 09:42:39;;;;;;;17.23;9.27;;;;;;;1.06;100.00;93829.41;5031233;28;20228;-60
2021/12/08 09:45:45;;;;;;;14.80;8.60;;;;;;;1.16;100.00;93837.16;5030826;28;20498;-61
2021/12/08 09:48:12;;;;;;;15.40;8.93;;;;;;;1.09;100.00;93833.44;5030202;28;20225;-61
2021/12/08 09:50:37;;;;;;;15.17;8.97;;;;;;;0.99;100.00;93825.66;5030703;28;20174;-61
2021/12/08 09:53:06;;;;;;;15.23;8.33;;;;;;;1.41;100.00;93833.06;5031222;28;20275;-59
2021/12/08 09:55:32;;;;;;;14.20;8.37;;;;;;;1.38;100.00;93827.41;5030675;28;20635;-61
2021/12/08 09:57:57;;;;;;;15.67;10.00;;;;;;;1.13;100.00;93827.34;5031059;28;20213;-62
2021/12/08 10:00:38;;;;;;;17.57;8.97;;;;;;;1.10;100.00;93833.34;5030510;28;20186;-59
2021/12/08 10:03:05;;;;;;;16.73;8.43;;;;;;;1.46;100.00;93818.53;5031122;28;20209;-60
2021/12/08 10:05:33;;;;;;;14.73;9.10;;;;;;;1.67;100.00;93813.88;5029613;28;20498;-58
2021/12/08 10:07:59;;;;;;;14.80;8.90;;;;;;;1.59;100.00;93826.88;5030925;28;20605;-59
2021/12/08 10:10:26;;;;;;;13.77;8.10;;;;;;;1.68;100.00;93830.47;5030647;28;20193;-60
2021/12/08 10:12:52;;;;;;;17.27;9.63;;;;;;;1.58;100.00;93834.47;5030780;28;20284;-60
2021/12/08 10:15:20;;;;;;;14.60;9.07;;;;;;;1.53;100.00;93842.28;5030487;28;20209;-61
2021/12/08 10:17:46;;;;;;;13.80;8.97;;;;;;;1.97;100.00;93831.94;5031104;28;20233;-58
2021/12/08 10:20:37;;;;;;;19.40;9.37;;;;;;;2.28;100.00;93849.06;5030625;28;20179;-61
2021/12/08 10:23:30;;;;;;;14.77;8.50;;;;;;;1.92;100.00;93846.44;5016535;28;20230;-61
2021/12/08 10:26:06;;;;;;;15.03;8.93;;;;;;;1.70;100.00;93836.19;5030277;28;20236;-62
2021/12/08 10:28:40;;;;;;;19.27;10.37;;;;;;;2.11;100.00;93849.38;5030969;28;20197;-61
2021/12/08 10:31:26;;;;;;;18.17;10.63;;;;;;;2.38;100.00;93824.22;5030709;28;20186;-59
2021/12/08 10:36:49;;;;;;;19.27;10.30;;;;;;;2.81;100.00;93824.63;5031224;28;20313;-58
2021/12/08 10:39:46;;;;;;;17.33;9.23;;;;;;;2.67;100.00;93828.06;5030849;28;20179;-60
2021/12/08 10:42:26;;;;;;;14.43;9.50;;;;;;;2.66;100.00;93826.47;5031422;28;20214;-58
2021/12/08 10:47:49;;;;;;;16.63;9.77;;;;;;;2.28;100.00;93815.69;5034632;28;20282;-59
2021/12/08 10:56:02;;;;;;;16.17;9.27;;;;;;;4.14;100.00;93831.75;5033781;28;20170;-58
2021/12/08 10:58:32;;;;;;;14.80;9.40;;;;;;;4.34;100.00;93852.16;5034002;28;20184;-59
2021/12/08 11:01:09;;;;;;;17.53;10.20;;;;;;;5.11;100.00;93857.97;5034065;28;20198;-58
2021/12/08 11:03:36;;;;;;;16.57;9.07;;;;;;;5.40;100.00;93878.41;5033945;28;20167;-60
2021/12/08 11:06:04;;;;;;;13.87;9.47;;;;;;;5.72;100.00;93885.97;5032145;28;20182;-61
2021/12/08 11:08:39;;;;;;;12.83;8.70;;;;;;;5.54;100.00;93910.09;5033982;28;20253;-59
2021/12/08 11:11:07;;;;;;;16.13;8.87;;;;;;;5.88;100.00;93888.94;5032389;28;20180;-62
2021/12/08 11:13:39;;;;;;;13.13;8.77;;;;;;;6.05;100.00;93883.38;5033542;28;20183;-58
2021/12/08 11:16:41;;;;;;;13.87;8.30;;;;;;;5.92;100.00;93882.72;5033249;28;20184;-62
2021/12/08 11:19:21;;;;;;;12.03;8.00;;;;;;;5.26;100.00;93887.94;5028214;28;20227;-62
2021/12/08 11:21:55;;;;;;;14.47;8.63;;;;;;;5.93;100.00;93882.63;5033367;28;20591;-60
2021/12/08 11:24:38;;;;;;;14.70;9.17;;;;;;;4.88;100.00;93890.84;5033181;28;20157;-61
2021/12/08 11:27:07;;;;;;;15.17;9.47;;;;;;;5.37;100.00;93835.00;5033090;28;20588;-59
2021/12/08 11:29:38;;;;;;;16.27;8.70;;;;;;;5.62;100.00;93880.06;5033228;28;20273;-59
2021/12/08 11:32:07;;;;;;;10.37;8.00;;;;;;;5.84;100.00;93885.84;5040525;22;20230;-60
2021/12/08 11:34:38;;;;;;;13.07;8.07;;;;;;;5.48;100.00;93890.41;5033095;28;20195;-58
2021/12/08 11:37:07;;;;;;;17.87;9.30;;;;;;;5.07;100.00;93923.78;5040166;22;20826;-60
2021/12/08 11:39:48;;;;;;;15.97;8.87;;;;;;;5.31;100.00;93856.44;5033185;28;20720;-61
2021/12/08 11:42:22;;;;;;;13.93;8.77;;;;;;;5.35;100.00;93862.84;5033162;28;20218;-59
2021/12/08 11:44:50;;;;;;;15.63;8.07;;;;;;;5.87;100.00;93895.72;5032880;28;20173;-60
2021/12/08 11:47:21;;;;;;;17.43;9.43;;;;;;;6.03;100.00;93889.44;5032737;28;20219;-61
2021/12/08 11:49:50;;;;;;;14.00;9.27;;;;;;;5.62;100.00;93910.31;5032825;28;20176;-61
2021/12/08 11:52:20;;;;;;;14.20;9.27;;;;;;;5.45;100.00;93896.50;5033050;28;20216;-61
2021/12/08 11:55:00;;;;;;;14.97;9.23;;;;;;;4.32;100.00;93874.09;5032212;28;20175;-63
2021/12/08 11:57:37;;;;;;;16.30;9.80;;;;;;;4.38;100.00;93844.28;5033032;28;20211;-61
2021/12/08 12:00:11;;;;;;;15.53;8.90;;;;;;;4.20;100.00;93848.16;5032377;28;20251;-57
2021/12/08 12:02:37;;;;;;;17.47;10.17;;;;;;;3.65;100.00;93822.84;5032398;28;20225;-60
2021/12/08 12:05:06;;;;;;;13.40;8.80;;;;;;;3.88;100.00;93830.34;5032845;28;20760;-57
2021/12/08 12:07:32;;;;;;;18.43;10.60;;;;;;;4.25;100.00;93826.75;5033071;28;20259;-59
2021/12/08 12:09:58;;;;;;;18.10;11.27;;;;;;;4.09;100.00;93833.03;5032695;28;20175;-59
2021/12/08 12:12:23;;;;;;;15.17;9.33;;;;;;;3.52;100.00;93838.00;5031232;28;20208;-62
2021/12/08 12:14:49;;;;;;;15.57;9.67;;;;;;;3.80;100.00;93837.63;5032785;28;20652;-60
2021/12/08 12:17:15;;;;;;;15.97;9.40;;;;;;;3.92;100.00;93873.69;5031043;28;20211;-60
2021/12/08 12:20:12;;;;;;;14.97;9.53;;;;;;;3.70;100.00;93845.94;5032517;28;20576;-60
2021/12/08 12:22:55;;;;;;;15.40;9.93;;;;;;;3.76;100.00;93851.34;5030370;28;20234;-61
2021/12/08 12:25:59;;;;;;;16.13;9.80;;;;;;;2.65;100.00;93839.13;5032411;28;20654;-61
2021/12/08 12:28:36;;;;;;;13.87;8.87;;;;;;;1.91;100.00;93854.88;5032676;28;20659;-62
2021/12/08 12:31:19;;;;;;;14.63;8.83;;;;;;;1.76;100.00;93863.34;5032098;28;20173;-60
2021/12/08 12:33:46;;;;;;;16.77;9.37;;;;;;;1.66;100.00;93855.63;5032274;28;20229;-59
2021/12/08 12:36:27;;;;;;;13.90;8.97;;;;;;;2.03;100.00;93861.59;5032133;28;20709;-58